createdAt,value
2022-09-24T00:00:17.534Z,1133
2022-09-24T00:02:18.387Z,1026
2022-09-24T00:04:18.250Z,1014
2022-09-24T00:06:18.108Z,948
2022-09-24T00:08:17.973Z,1126
2022-09-24T00:10:17.425Z,1043
2022-09-24T00:12:18.179Z,1007
2022-09-24T00:14:18.284Z,1112
2022-09-24T00:16:18.074Z,1107
2022-09-24T00:18:18.121Z,999
2022-09-24T00:20:17.848Z,846
2022-09-24T00:22:17.697Z,1068
2022-09-24T00:24:17.537Z,1121
2022-09-24T00:26:18.492Z,951
2022-09-24T00:28:18.252Z,993
2022-09-24T00:30:18.051Z,1123
2022-09-24T00:32:17.778Z,988
2022-09-24T00:34:17.636Z,1123
2022-09-24T00:36:17.330Z,1020
2022-09-24T00:38:18.093Z,1141
2022-09-24T00:40:17.893Z,973
2022-09-24T00:42:17.716Z,1042
2022-09-24T00:44:17.479Z,1103
2022-09-24T00:46:18.338Z,1221
2022-09-24T00:48:18.124Z,980
2022-09-24T00:50:17.905Z,976
2022-09-24T00:52:17.654Z,1135
2022-09-24T00:54:17.426Z,986
2022-09-24T00:56:18.234Z,919
2022-09-24T00:58:18.165Z,1026
2022-09-24T01:00:17.909Z,1100
2022-09-24T01:02:17.767Z,1034
2022-09-24T01:04:17.568Z,1049
2022-09-24T01:06:18.423Z,956
2022-09-24T01:08:18.178Z,1041
2022-09-24T01:10:17.935Z,1079
2022-09-24T01:12:17.695Z,1166
2022-09-24T01:14:17.581Z,1009
2022-09-24T01:16:17.484Z,1106
2022-09-24T01:18:17.457Z,1106
2022-09-24T01:20:18.196Z,1032
2022-09-24T01:22:17.971Z,1088
2022-09-24T01:24:17.729Z,1031
2022-09-24T01:26:17.579Z,966
2022-09-24T01:28:17.454Z,963
2022-09-24T01:30:18.307Z,1076
2022-09-24T01:32:18.168Z,993
2022-09-24T01:34:18.005Z,1028
2022-09-24T01:36:17.780Z,977
2022-09-24T01:38:19.122Z,1029
2022-09-24T01:40:18.062Z,990
2022-09-24T01:42:17.928Z,834
2022-09-24T01:44:17.692Z,1051
2022-09-24T01:46:17.664Z,999
2022-09-24T01:48:17.444Z,1015
2022-09-24T01:50:18.229Z,982
2022-09-24T01:52:18.053Z,856
2022-09-24T01:54:17.778Z,1062
2022-09-24T01:56:17.687Z,852
2022-09-24T01:58:17.470Z,942
2022-09-24T02:00:18.244Z,833
2022-09-24T02:02:18.099Z,1029
2022-09-24T02:04:18.051Z,990
2022-09-24T02:06:17.917Z,985
2022-09-24T02:08:17.700Z,1029
2022-09-24T02:10:17.545Z,1009
2022-09-24T02:12:18.482Z,1054
2022-09-24T02:14:18.216Z,1055
2022-09-24T02:16:17.957Z,954
2022-09-24T02:18:17.866Z,996
2022-09-24T02:20:17.667Z,798
2022-09-24T02:22:17.516Z,983
2022-09-24T02:24:18.308Z,1046
2022-09-24T02:26:18.208Z,1077
2022-09-24T02:28:17.918Z,989
2022-09-24T02:30:17.829Z,960
2022-09-24T02:32:17.671Z,942
2022-09-24T02:34:17.437Z,1023
2022-09-24T02:36:18.266Z,1083
2022-09-24T02:38:18.043Z,1093
2022-09-24T02:40:17.823Z,1060
2022-09-24T02:42:17.589Z,1150
2022-09-24T02:44:17.410Z,961
2022-09-24T02:46:18.242Z,1076
2022-09-24T02:48:17.992Z,988
2022-09-24T02:50:17.866Z,1161
2022-09-24T02:52:17.645Z,993
2022-09-24T02:54:17.428Z,1126
2022-09-24T02:56:18.184Z,1060
2022-09-24T02:58:17.920Z,1111
2022-09-24T03:00:17.698Z,1081
2022-09-24T03:02:17.505Z,1076
2022-09-24T03:04:17.306Z,1116
2022-09-24T03:06:18.089Z,1075
2022-09-24T03:08:17.805Z,1051
2022-09-24T03:10:17.609Z,1047
2022-09-24T03:12:17.407Z,999
2022-09-24T03:14:18.241Z,1136
2022-09-24T03:16:18.106Z,860
2022-09-24T03:18:18.087Z,1120
2022-09-24T03:20:17.845Z,1027
2022-09-24T03:22:17.618Z,1087
2022-09-24T03:24:17.413Z,971
2022-09-24T03:26:18.216Z,1097
2022-09-24T03:28:18.011Z,1090
2022-09-24T03:30:17.715Z,886
2022-09-24T03:32:17.414Z,1004
2022-09-24T03:34:18.258Z,983
2022-09-24T03:36:18.065Z,1150
2022-09-24T03:38:17.888Z,989
2022-09-24T03:40:17.723Z,1069
2022-09-24T03:42:17.620Z,901
2022-09-24T03:44:17.452Z,986
2022-09-24T03:46:18.331Z,1085
2022-09-24T03:48:18.130Z,908
2022-09-24T03:50:17.873Z,813
2022-09-24T03:52:17.665Z,1042
2022-09-24T03:54:17.510Z,819
2022-09-24T03:56:18.302Z,1013
2022-09-24T03:58:18.027Z,1027
2022-09-24T04:00:17.824Z,995
2022-09-24T04:02:17.639Z,988
2022-09-24T04:04:17.637Z,987
2022-09-24T04:06:20.894Z,1048
2022-09-24T04:08:18.139Z,824
2022-09-24T04:10:17.944Z,963
2022-09-24T04:12:17.674Z,908
2022-09-24T04:14:17.511Z,1018
2022-09-24T04:16:18.304Z,946
2022-09-24T04:18:18.343Z,815
2022-09-24T04:20:18.028Z,993
2022-09-24T04:22:18.069Z,727
2022-09-24T04:24:17.821Z,946
2022-09-24T04:26:18.284Z,968
2022-09-24T04:28:18.134Z,960
2022-09-24T04:30:17.872Z,1055
2022-09-24T04:32:17.663Z,1081
2022-09-24T04:34:17.484Z,965
2022-09-24T04:36:18.327Z,826
2022-09-24T04:38:18.071Z,967
2022-09-24T04:40:17.940Z,1044
2022-09-24T04:42:17.862Z,1006
2022-09-24T04:44:17.637Z,881
2022-09-24T04:46:17.438Z,932
2022-09-24T04:48:18.309Z,916
2022-09-24T04:50:18.033Z,981
2022-09-24T04:52:17.842Z,1087
2022-09-24T04:54:17.719Z,750
2022-09-24T04:56:17.543Z,1050
2022-09-24T04:58:17.377Z,1155
2022-09-24T05:00:18.181Z,1118
2022-09-24T05:02:18.098Z,984
2022-09-24T05:04:17.944Z,1087
2022-09-24T05:06:17.745Z,947
2022-09-24T05:08:17.545Z,1009
2022-09-24T05:10:18.356Z,963
2022-09-24T05:12:18.199Z,946
2022-09-24T05:14:18.133Z,1122
2022-09-24T05:16:18.030Z,1015
2022-09-24T05:18:18.089Z,989
2022-09-24T05:20:17.886Z,1086
2022-09-24T05:22:17.628Z,1137
2022-09-24T05:24:17.424Z,1094
2022-09-24T05:26:18.223Z,1087
2022-09-24T05:28:18.235Z,952
2022-09-24T05:30:18.075Z,1021
2022-09-24T05:32:18.047Z,1079
2022-09-24T05:34:17.868Z,972
2022-09-24T05:36:17.914Z,1167
2022-09-24T05:38:17.741Z,979
2022-09-24T05:40:17.740Z,1017
2022-09-24T05:42:17.539Z,932
2022-09-24T05:44:18.347Z,938
2022-09-24T05:46:18.142Z,1155
2022-09-24T05:48:18.002Z,990
2022-09-24T05:50:17.834Z,968
2022-09-24T05:52:17.754Z,1041
2022-09-24T05:54:17.580Z,1126
2022-09-24T05:56:17.361Z,891
2022-09-24T05:58:18.195Z,1056
2022-09-24T06:00:17.936Z,1100
2022-09-24T06:02:17.720Z,971
2022-09-24T06:04:17.528Z,1086
2022-09-24T06:06:18.373Z,1010
2022-09-24T06:08:18.118Z,999
2022-09-24T06:10:17.879Z,1018
2022-09-24T06:12:17.651Z,1072
2022-09-24T06:14:17.503Z,937
2022-09-24T06:16:17.437Z,1060
2022-09-24T06:18:17.586Z,1060
2022-09-24T06:20:18.375Z,932
2022-09-24T06:22:18.169Z,992
2022-09-24T06:24:17.929Z,1128
2022-09-24T06:26:17.638Z,860
2022-09-24T06:28:17.456Z,1114
2022-09-24T06:30:18.213Z,949
2022-09-24T06:32:17.998Z,944
2022-09-24T06:34:17.760Z,1106
2022-09-24T06:36:17.517Z,1020
2022-09-24T06:38:18.358Z,1081
2022-09-24T06:40:18.226Z,1022
2022-09-24T06:42:18.067Z,1101
2022-09-24T06:44:17.865Z,993
2022-09-24T06:46:17.674Z,1082
2022-09-24T06:48:17.517Z,1011
2022-09-24T06:50:18.355Z,892
2022-09-24T06:52:18.176Z,1030
2022-09-24T06:54:17.979Z,1029
2022-09-24T06:56:18.075Z,1048
2022-09-24T06:58:17.915Z,828
2022-09-24T07:00:17.761Z,1019
2022-09-24T07:02:17.683Z,1002
2022-09-24T07:04:17.536Z,1147
2022-09-24T07:06:18.375Z,1070
2022-09-24T07:08:18.186Z,1145
2022-09-24T07:10:18.000Z,978
2022-09-24T07:12:17.828Z,1058
2022-09-24T07:14:17.642Z,1055
2022-09-24T07:16:17.401Z,1015
2022-09-24T07:18:18.332Z,1063
2022-09-24T07:20:18.079Z,932
2022-09-24T07:22:17.910Z,1009
2022-09-24T07:24:17.705Z,998
2022-09-24T07:26:17.479Z,1079
2022-09-24T07:28:18.225Z,1085
2022-09-24T07:30:18.043Z,1097
2022-09-24T07:32:17.886Z,1153
2022-09-24T07:34:17.754Z,1061
2022-09-24T07:36:17.589Z,1052
2022-09-24T07:38:17.368Z,1075
2022-09-24T07:40:18.237Z,1001
2022-09-24T07:42:18.148Z,906
2022-09-24T07:44:17.972Z,994
2022-09-24T07:46:17.747Z,1085
2022-09-24T07:48:17.497Z,1053
2022-09-24T07:50:18.277Z,1087
2022-09-24T07:52:18.109Z,878
2022-09-24T07:54:17.943Z,855
2022-09-24T07:56:17.749Z,969
2022-09-24T07:58:17.591Z,1061
2022-09-24T08:00:17.433Z,1036
2022-09-24T08:02:18.293Z,1028
2022-09-24T08:04:18.152Z,1064
2022-09-24T08:06:17.970Z,890
2022-09-24T08:08:17.750Z,989
2022-09-24T08:10:17.569Z,918
2022-09-24T08:12:17.446Z,995
2022-09-24T08:14:18.268Z,894
2022-09-24T08:16:18.141Z,935
2022-09-24T08:18:18.141Z,929
2022-09-24T08:20:18.039Z,940
2022-09-24T08:22:18.078Z,887
2022-09-24T08:24:17.896Z,736
2022-09-24T08:26:17.697Z,660
2022-09-24T08:28:17.507Z,757
2022-09-24T08:30:18.253Z,739
2022-09-24T08:32:18.090Z,702
2022-09-24T08:34:17.828Z,739
2022-09-24T08:36:17.580Z,809
2022-09-24T08:38:18.309Z,766
2022-09-24T08:40:18.159Z,626
2022-09-24T08:42:18.007Z,771
2022-09-24T08:44:17.848Z,716
2022-09-24T08:46:17.717Z,749
2022-09-24T08:48:17.469Z,682
2022-09-24T08:50:18.408Z,650
2022-09-24T08:52:18.216Z,752
2022-09-24T08:54:18.055Z,655
2022-09-24T08:56:17.808Z,710
2022-09-24T08:58:17.575Z,584
2022-09-24T09:00:17.372Z,616
2022-09-24T09:02:18.267Z,695
2022-09-24T09:04:18.106Z,765
2022-09-24T09:06:17.859Z,669
2022-09-24T09:08:42.415Z,622
2022-09-24T09:10:17.790Z,706
2022-09-24T09:12:17.614Z,659
2022-09-24T09:14:17.358Z,749
2022-09-24T09:16:18.230Z,579
2022-09-24T09:18:18.167Z,732
2022-09-24T09:20:18.156Z,744
2022-09-24T09:22:18.090Z,620
2022-09-24T09:24:18.293Z,562
2022-09-24T09:26:18.112Z,792
2022-09-24T09:28:17.873Z,771
2022-09-24T09:30:17.757Z,646
2022-09-24T09:32:17.674Z,646
2022-09-24T09:34:17.388Z,737
2022-09-24T09:36:18.129Z,733
2022-09-24T09:38:17.916Z,722
2022-09-24T09:40:17.796Z,709
2022-09-24T09:42:18.005Z,607
2022-09-24T09:44:17.782Z,674
2022-09-24T09:46:17.588Z,626
2022-09-24T09:48:17.375Z,728
2022-09-24T09:50:17.423Z,800
2022-09-24T09:52:18.211Z,622
2022-09-24T09:54:17.990Z,609
2022-09-24T09:56:17.779Z,657
2022-09-24T09:58:17.544Z,674
2022-09-24T10:00:17.374Z,858
2022-09-24T10:02:18.307Z,778
2022-09-24T10:04:18.269Z,706
2022-09-24T10:06:18.170Z,793
2022-09-24T10:08:18.016Z,754
2022-09-24T10:10:17.727Z,655
2022-09-24T10:12:17.588Z,629
2022-09-24T10:14:17.445Z,626
2022-09-24T10:16:18.266Z,690
2022-09-24T10:18:18.247Z,703
2022-09-24T10:20:17.946Z,736
2022-09-24T10:22:17.729Z,798
2022-09-24T10:24:17.561Z,769
2022-09-24T10:26:17.376Z,766
2022-09-24T10:28:18.184Z,701
2022-09-24T10:30:17.947Z,695
2022-09-24T10:32:17.714Z,603
2022-09-24T10:34:17.494Z,685
2022-09-24T10:36:18.225Z,743
2022-09-24T10:38:17.959Z,619
2022-09-24T10:40:17.773Z,678
2022-09-24T10:42:17.567Z,671
2022-09-24T10:44:17.398Z,747
2022-09-24T10:46:18.276Z,665
2022-09-24T10:48:18.059Z,698
2022-09-24T10:50:17.768Z,790
2022-09-24T10:52:17.612Z,760
2022-09-24T10:54:17.415Z,738
2022-09-24T10:56:18.162Z,743
2022-09-24T10:58:17.924Z,580
2022-09-24T11:00:17.782Z,629
2022-09-24T11:02:17.793Z,680
2022-09-24T11:04:17.542Z,692
2022-09-24T11:06:18.351Z,658
2022-09-24T11:08:18.115Z,624
2022-09-24T11:10:17.832Z,494
2022-09-24T11:12:17.631Z,626
2022-09-24T11:14:17.448Z,748
2022-09-24T11:16:18.373Z,626
2022-09-24T11:18:17.451Z,661
2022-09-24T11:20:18.262Z,725
2022-09-24T11:22:18.052Z,816
2022-09-24T11:24:17.810Z,644
2022-09-24T11:26:17.712Z,717
2022-09-24T11:28:17.518Z,660
2022-09-24T11:30:18.389Z,735
2022-09-24T11:32:18.188Z,692
2022-09-24T11:34:17.941Z,702
2022-09-24T11:36:17.786Z,727
2022-09-24T11:38:17.519Z,715
2022-09-24T11:40:18.401Z,777
2022-09-24T11:42:18.335Z,614
2022-09-24T11:44:18.153Z,719
2022-09-24T11:46:17.994Z,708
2022-09-24T11:48:17.777Z,778
2022-09-24T11:50:17.662Z,681
2022-09-24T11:52:17.493Z,708
2022-09-24T11:54:18.281Z,577
2022-09-24T11:56:18.073Z,613
2022-09-24T11:58:17.852Z,607
2022-09-24T12:00:17.685Z,690
2022-09-24T12:02:17.618Z,700
2022-09-24T12:04:17.409Z,623
2022-09-24T12:06:18.190Z,674
2022-09-24T12:08:17.947Z,685
2022-09-24T12:10:17.689Z,711
2022-09-24T12:12:17.505Z,656
2022-09-24T12:14:18.289Z,513
2022-09-24T12:16:18.195Z,673
2022-09-24T12:18:18.138Z,593
2022-09-24T12:20:17.948Z,645
2022-09-24T12:22:17.743Z,535
2022-09-24T12:24:17.793Z,624
2022-09-24T12:26:17.621Z,578
2022-09-24T12:28:17.816Z,572
2022-09-24T12:30:17.589Z,698
2022-09-24T12:32:17.879Z,631
2022-09-24T12:34:17.712Z,700
2022-09-24T12:36:18.090Z,607
2022-09-24T12:38:17.862Z,748
2022-09-24T12:40:18.130Z,630
2022-09-24T12:42:18.009Z,739
2022-09-24T12:44:21.842Z,755
2022-09-24T12:46:17.897Z,578
2022-09-24T12:48:17.716Z,716
2022-09-24T12:50:17.516Z,609
2022-09-24T12:52:18.314Z,721
2022-09-24T12:54:18.117Z,756
2022-09-24T12:56:17.926Z,582
2022-09-24T12:58:17.676Z,489
2022-09-24T13:00:17.467Z,662
2022-09-24T13:02:18.373Z,689
2022-09-24T13:04:18.221Z,716
2022-09-24T13:06:17.989Z,689
2022-09-24T13:08:17.902Z,661
2022-09-24T13:10:17.830Z,714
2022-09-24T13:12:17.700Z,651
2022-09-24T13:14:17.476Z,608
2022-09-24T13:16:18.360Z,702
2022-09-24T13:18:17.397Z,749
2022-09-24T13:20:18.199Z,708
2022-09-24T13:22:18.010Z,781
2022-09-24T13:24:17.807Z,825
2022-09-24T13:26:17.672Z,820
2022-09-24T13:28:17.529Z,741
2022-09-24T13:30:17.615Z,795
2022-09-24T13:32:17.491Z,720
2022-09-24T13:34:18.256Z,870
2022-09-24T13:36:18.050Z,808
2022-09-24T13:38:17.876Z,808
2022-09-24T13:40:17.789Z,755
2022-09-24T13:42:17.702Z,893
2022-09-24T13:44:17.573Z,808
2022-09-24T13:46:18.326Z,766
2022-09-24T13:48:18.232Z,920
2022-09-24T13:50:18.094Z,823
2022-09-24T13:52:17.951Z,752
2022-09-24T13:54:17.729Z,846
2022-09-24T13:56:17.483Z,749
2022-09-24T13:58:18.298Z,845
2022-09-24T14:00:18.116Z,683
2022-09-24T14:02:18.009Z,732
2022-09-24T14:04:17.827Z,694
2022-09-24T14:06:17.630Z,859
2022-09-24T14:08:17.465Z,881
2022-09-24T14:10:18.281Z,838
2022-09-24T14:12:18.117Z,878
2022-09-24T14:14:17.943Z,813
2022-09-24T14:16:17.811Z,809
2022-09-24T14:18:17.808Z,874
2022-09-24T14:20:17.596Z,801
2022-09-24T14:22:17.478Z,683
2022-09-24T14:24:18.329Z,798
2022-09-24T14:26:18.137Z,854
2022-09-24T14:28:17.917Z,884
2022-09-24T14:30:17.733Z,791
2022-09-24T14:32:17.519Z,773
2022-09-24T14:34:18.301Z,807
2022-09-24T14:36:18.154Z,827
2022-09-24T14:38:18.039Z,759
2022-09-24T14:40:17.844Z,861
2022-09-24T14:42:17.590Z,918
2022-09-24T14:44:17.438Z,712
2022-09-24T14:46:18.325Z,726
2022-09-24T14:48:18.176Z,817
2022-09-24T14:50:17.953Z,810
2022-09-24T14:52:17.811Z,850
2022-09-24T14:54:17.513Z,927
2022-09-24T14:56:18.291Z,823
2022-09-24T14:58:18.076Z,795
2022-09-24T15:00:17.731Z,909
2022-09-24T15:02:17.638Z,885
2022-09-24T15:04:17.498Z,942
2022-09-24T15:06:18.333Z,869
2022-09-24T15:08:18.148Z,858
2022-09-24T15:10:17.923Z,923
2022-09-24T15:12:17.757Z,766
2022-09-24T15:14:17.539Z,818
2022-09-24T15:16:18.372Z,759
2022-09-24T15:18:17.355Z,813
2022-09-24T15:20:18.144Z,831
2022-09-24T15:22:17.980Z,858
2022-09-24T15:24:17.761Z,832
2022-09-24T15:26:17.557Z,873
2022-09-24T15:28:18.209Z,928
2022-09-24T15:30:17.971Z,838
2022-09-24T15:32:17.795Z,822
2022-09-24T15:34:19.900Z,927
2022-09-24T15:36:17.872Z,777
2022-09-24T15:38:17.742Z,787
2022-09-24T15:40:17.639Z,924
2022-09-24T15:42:17.482Z,698
2022-09-24T15:44:18.301Z,888
2022-09-24T15:46:18.172Z,804
2022-09-24T15:48:18.018Z,844
2022-09-24T15:50:17.831Z,829
2022-09-24T15:52:17.580Z,828
2022-09-24T15:54:17.363Z,829
2022-09-24T15:56:18.116Z,760
2022-09-24T15:58:19.544Z,901
2022-09-24T16:00:17.517Z,813
2022-09-24T16:02:18.327Z,926
2022-09-24T16:04:18.114Z,831
2022-09-24T16:06:17.891Z,820
2022-09-24T16:08:17.662Z,999
2022-09-24T16:10:17.442Z,860
2022-09-24T16:12:18.170Z,831
2022-09-24T16:14:17.959Z,897
2022-09-24T16:16:17.793Z,844
2022-09-24T16:18:17.809Z,1022
2022-09-24T16:20:17.626Z,836
2022-09-24T16:22:20.435Z,761
2022-09-24T16:24:17.433Z,958
2022-09-24T16:26:18.144Z,911
2022-09-24T16:28:17.982Z,942
2022-09-24T16:30:17.842Z,830
2022-09-24T16:32:17.676Z,800
2022-09-24T16:34:18.007Z,946
2022-09-24T16:36:17.824Z,833
2022-09-24T16:38:21.802Z,813
2022-09-24T16:40:18.447Z,857
2022-09-24T16:42:18.531Z,875
2022-09-24T16:44:18.323Z,857
2022-09-24T16:46:20.754Z,787
2022-09-24T16:48:17.806Z,841
2022-09-24T16:50:17.577Z,866
2022-09-24T16:52:17.370Z,791
2022-09-24T16:54:18.470Z,806
2022-09-24T16:56:18.164Z,832
2022-09-24T16:58:17.668Z,785
2022-09-24T17:00:17.536Z,843
2022-09-24T17:02:19.140Z,726
2022-09-24T17:04:18.309Z,739
2022-09-24T17:06:18.227Z,840
2022-09-24T17:08:18.055Z,929
2022-09-24T17:10:17.841Z,891
2022-09-24T17:12:17.703Z,814
2022-09-24T17:14:17.385Z,761
2022-09-24T17:16:18.294Z,937
2022-09-24T17:18:18.203Z,950
2022-09-24T17:20:17.952Z,898
2022-09-24T17:22:17.871Z,888
2022-09-24T17:24:21.372Z,962
2022-09-24T17:26:18.355Z,818
2022-09-24T17:28:18.152Z,927
2022-09-24T17:30:18.208Z,1080
2022-09-24T17:32:18.141Z,1021
2022-09-24T17:34:17.954Z,958
2022-09-24T17:36:17.713Z,897
2022-09-24T17:38:17.558Z,901
2022-09-24T17:40:21.434Z,979
2022-09-24T17:42:17.578Z,952
2022-09-24T17:44:17.442Z,1091
2022-09-24T17:46:18.243Z,919
2022-09-24T17:48:18.070Z,913
2022-09-24T17:50:17.811Z,938
2022-09-24T17:52:17.623Z,1138
2022-09-24T17:54:17.458Z,1094
2022-09-24T17:56:18.271Z,910
2022-09-24T17:58:18.026Z,1057
2022-09-24T18:00:17.828Z,1069
2022-09-24T18:02:17.735Z,1079
2022-09-24T18:04:17.576Z,999
2022-09-24T18:06:17.386Z,1005
2022-09-24T18:08:18.204Z,1066
2022-09-24T18:10:17.980Z,1103
2022-09-24T18:12:17.858Z,1096
2022-09-24T18:14:17.706Z,1129
2022-09-24T18:16:17.551Z,1017
2022-09-24T18:18:17.473Z,982
2022-09-24T18:20:18.228Z,986
2022-09-24T18:22:18.022Z,1174
2022-09-24T18:24:17.878Z,1123
2022-09-24T18:26:17.719Z,1121
2022-09-24T18:28:18.773Z,1169
2022-09-24T18:30:17.705Z,1221
2022-09-24T18:32:17.566Z,1198
2022-09-24T18:34:17.378Z,1226
2022-09-24T18:36:18.207Z,1231
2022-09-24T18:38:18.051Z,1346
2022-09-24T18:40:17.872Z,1115
2022-09-24T18:42:17.667Z,1423
2022-09-24T18:44:17.449Z,1142
2022-09-24T18:46:18.326Z,1368
2022-09-24T18:48:18.139Z,1154
2022-09-24T18:50:17.918Z,1133
2022-09-24T18:52:17.751Z,1457
2022-09-24T18:54:17.545Z,1427
2022-09-24T18:56:18.373Z,1257
2022-09-24T18:58:18.152Z,1441
2022-09-24T19:00:17.972Z,1331
2022-09-24T19:02:17.783Z,1505
2022-09-24T19:04:17.669Z,1443
2022-09-24T19:06:17.536Z,1442
2022-09-24T19:08:18.281Z,1478
2022-09-24T19:10:18.028Z,1460
2022-09-24T19:12:17.897Z,1371
2022-09-24T19:14:17.696Z,1493
2022-09-24T19:16:17.499Z,1493
2022-09-24T19:18:17.475Z,1614
2022-09-24T19:20:18.228Z,1417
2022-09-24T19:22:18.036Z,1568
2022-09-24T19:24:18.078Z,1641
2022-09-24T19:26:17.979Z,1533
2022-09-24T19:28:17.851Z,1450
2022-09-24T19:30:18.197Z,1521
2022-09-24T19:32:18.074Z,1562
2022-09-24T19:34:17.889Z,1446
2022-09-24T19:36:17.643Z,1196
2022-09-24T19:38:17.407Z,1307
2022-09-24T19:40:18.191Z,1585
2022-09-24T19:42:18.019Z,1516
2022-09-24T19:44:17.930Z,1549
2022-09-24T19:46:17.920Z,1464
2022-09-24T19:48:17.749Z,1471
2022-09-24T19:50:17.957Z,1474
2022-09-24T19:52:17.848Z,1554
2022-09-24T19:54:17.655Z,1424
2022-09-24T19:56:17.471Z,1367
2022-09-24T19:58:18.276Z,1426
2022-09-24T20:00:18.087Z,1478
2022-09-24T20:02:18.011Z,1375
2022-09-24T20:04:17.916Z,1318
2022-09-24T20:06:17.655Z,1429
2022-09-24T20:08:17.445Z,1393
2022-09-24T20:10:18.251Z,1479
2022-09-24T20:12:18.049Z,1456
2022-09-24T20:14:18.220Z,1487
2022-09-24T20:16:18.123Z,1455
2022-09-24T20:18:18.161Z,1433
2022-09-24T20:20:17.928Z,1377
2022-09-24T20:22:17.802Z,1441
2022-09-24T20:24:17.559Z,1440
2022-09-24T20:26:18.314Z,1445
2022-09-24T20:28:18.114Z,1438
2022-09-24T20:30:17.855Z,1406
2022-09-24T20:32:17.693Z,1175
2022-09-24T20:34:17.622Z,1433
2022-09-24T20:36:20.818Z,1331
2022-09-24T20:38:18.060Z,1580
2022-09-24T20:40:17.883Z,1427
2022-09-24T20:42:17.877Z,1448
2022-09-24T20:44:17.682Z,1417
2022-09-24T20:46:17.604Z,1370
2022-09-24T20:48:17.513Z,1530
2022-09-24T20:50:18.358Z,1282
2022-09-24T20:52:18.130Z,1483
2022-09-24T20:54:17.979Z,1408
2022-09-24T20:56:18.151Z,1279
2022-09-24T20:58:18.062Z,1516
2022-09-24T21:00:18.075Z,1284
2022-09-24T21:02:18.019Z,1480
2022-09-24T21:04:17.856Z,1402
2022-09-24T21:06:17.669Z,1339
2022-09-24T21:08:17.410Z,1304
2022-09-24T21:10:18.226Z,1483
2022-09-24T21:12:18.150Z,1149
2022-09-24T21:14:18.707Z,1396
2022-09-24T21:16:17.934Z,1363
2022-09-24T21:18:23.003Z,1345
2022-09-24T21:20:17.716Z,1422
2022-09-24T21:22:17.836Z,1309
2022-09-24T21:24:17.763Z,1374
2022-09-24T21:26:17.612Z,1397
2022-09-24T21:28:17.322Z,1316
2022-09-24T21:30:18.181Z,1249
2022-09-24T21:32:18.042Z,1157
2022-09-24T21:34:17.956Z,1348
2022-09-24T21:36:17.907Z,1252
2022-09-24T21:38:17.768Z,1401
2022-09-24T21:40:17.564Z,1334
2022-09-24T21:42:17.382Z,1227
2022-09-24T21:44:18.235Z,1194
2022-09-24T21:46:18.129Z,1240
2022-09-24T21:48:18.017Z,1300
2022-09-24T21:50:17.856Z,1295
2022-09-24T21:52:17.708Z,1265
2022-09-24T21:54:17.771Z,1301
2022-09-24T21:56:17.734Z,1136
2022-09-24T21:58:17.565Z,1182
2022-09-24T22:00:17.390Z,1210
2022-09-24T22:02:18.318Z,1354
2022-09-24T22:04:18.128Z,1222
2022-09-24T22:06:17.915Z,1164
2022-09-24T22:08:17.683Z,1214
2022-09-24T22:10:17.520Z,1164
2022-09-24T22:12:18.383Z,1176
2022-09-24T22:14:18.590Z,1174
2022-09-24T22:16:17.710Z,1278
2022-09-24T22:18:17.647Z,1000
2022-09-24T22:20:17.520Z,1250
2022-09-24T22:22:17.731Z,1261
2022-09-24T22:24:17.582Z,1259
2022-09-24T22:26:17.981Z,1262
2022-09-24T22:28:20.644Z,1099
2022-09-24T22:30:17.474Z,1174
2022-09-24T22:32:18.328Z,1257
2022-09-24T22:34:18.191Z,1263
2022-09-24T22:36:18.034Z,1280
2022-09-24T22:38:17.818Z,1264
2022-09-24T22:40:17.665Z,1087
2022-09-24T22:42:17.475Z,1143
2022-09-24T22:44:18.311Z,1286
2022-09-24T22:46:18.184Z,1247
2022-09-24T22:48:18.027Z,1161
2022-09-24T22:50:17.948Z,1157
2022-09-24T22:52:17.771Z,1064
2022-09-24T22:54:17.570Z,1109
2022-09-24T22:56:17.463Z,1169
2022-09-24T22:58:18.307Z,1055
2022-09-24T23:00:18.208Z,1011
2022-09-24T23:02:18.169Z,1145
2022-09-24T23:04:18.107Z,1040
2022-09-24T23:06:17.947Z,1051
2022-09-24T23:08:17.820Z,1200
2022-09-24T23:10:17.622Z,1080
2022-09-24T23:12:17.411Z,1098
2022-09-24T23:14:18.195Z,1105
2022-09-24T23:16:18.059Z,1136
2022-09-24T23:18:17.985Z,1062
2022-09-24T23:20:17.735Z,1218
2022-09-24T23:22:17.454Z,1142
2022-09-24T23:24:18.187Z,1142
2022-09-24T23:26:18.256Z,1078
2022-09-24T23:28:18.083Z,1189
2022-09-24T23:30:17.948Z,947
2022-09-24T23:32:17.761Z,1206
2022-09-24T23:34:17.595Z,1061
2022-09-24T23:36:17.401Z,1123
2022-09-24T23:38:18.203Z,1189
2022-09-24T23:40:18.185Z,1020
2022-09-24T23:42:17.964Z,955
2022-09-24T23:44:17.709Z,1156
2022-09-24T23:46:17.638Z,1127
2022-09-24T23:48:17.508Z,1143
2022-09-24T23:50:18.313Z,1204
2022-09-24T23:52:18.185Z,950
2022-09-24T23:54:17.945Z,1097
2022-09-24T23:56:17.756Z,875
2022-09-24T23:58:17.518Z,1215
